Time;durP1;ratioP1;P1;durP2;ratioP2;P2;SDS_P1;SDS_P2;PMS_P1;PMS_P2;Temp;Humidity;BMP_temperature;BMP_pressure;BME280_temperature;BME280_humidity;BME280_pressure;Samples;Min_cycle;Max_cycle;Signal;HPM_P1;HPM_P2
2020/12/02 00:01:32;;;;;;;30.50;15.77;;;3.80;99.90;;;;;;5064708;28;20178;-54
2020/12/02 00:04:16;;;;;;;31.15;15.95;;;3.90;99.90;;;;;;5067771;28;20189;-55
2020/12/02 00:06:43;;;;;;;29.33;15.10;;;3.90;99.90;;;;;;5049207;28;20201;-56
2020/12/02 00:09:14;;;;;;;30.98;15.10;;;3.90;99.90;;;;;;5055217;28;20906;-55
2020/12/02 00:11:40;;;;;;;28.63;14.98;;;3.90;99.90;;;;;;5058734;28;20204;-55
2020/12/02 00:14:09;;;;;;;32.55;15.70;;;3.90;99.90;;;;;;5056469;28;20185;-56
2020/12/02 00:16:35;;;;;;;27.63;14.98;;;3.90;99.90;;;;;;5064038;28;20193;-54
2020/12/02 00:19:02;;;;;;;34.17;15.43;;;3.90;99.90;;;;;;5062473;28;20187;-54
2020/12/02 00:21:57;;;;;;;26.92;14.75;;;3.90;99.90;;;;;;5064528;28;20182;-55
2020/12/02 00:24:23;;;;;;;28.77;14.50;;;3.90;99.90;;;;;;5063805;28;20240;-54
2020/12/02 00:26:49;;;;;;;29.77;13.73;;;3.90;99.90;;;;;;5065038;28;20557;-55
2020/12/02 00:29:15;;;;;;;23.83;13.30;;;3.90;99.90;;;;;;5060047;28;20631;-56
2020/12/02 00:31:41;;;;;;;26.80;14.45;;;3.90;99.90;;;;;;5061709;28;20213;-54
2020/12/02 00:34:07;;;;;;;24.00;13.88;;;3.90;99.90;;;;;;5064373;28;20610;-56
2020/12/02 00:36:33;;;;;;;27.67;13.05;;;3.90;99.90;;;;;;5060049;28;20201;-57
2020/12/02 03:07:33;;;;;;;24.08;14.02;;;3.60;99.90;;;;;;5035136;28;20245;-52
2020/12/02 03:10:00;;;;;;;26.60;15.25;;;3.60;99.90;;;;;;5052981;28;20171;-55
2020/12/02 03:12:26;;;;;;;24.50;13.88;;;3.60;99.90;;;;;;5071566;28;20294;-52
2020/12/02 03:14:53;;;;;;;24.95;14.40;;;3.60;99.90;;;;;;5051214;28;20641;-53
2020/12/02 03:17:20;;;;;;;26.10;14.30;;;3.60;99.90;;;;;;5064750;28;20673;-52
2020/12/02 03:20:20;;;;;;;23.75;13.55;;;3.60;99.90;;;;;;5058414;28;20537;-52
2020/12/02 03:22:46;;;;;;;27.50;13.75;;;3.50;99.90;;;;;;5063752;28;20232;-54
2020/12/02 03:25:16;;;;;;;26.42;13.65;;;3.50;99.90;;;;;;5056007;28;20178;-52
2020/12/02 03:27:42;;;;;;;22.70;12.60;;;3.50;99.90;;;;;;5063781;28;20166;-54
2020/12/02 03:30:08;;;;;;;27.00;13.55;;;3.50;99.90;;;;;;5061715;28;20178;-55
2020/12/02 03:32:35;;;;;;;25.50;14.15;;;3.50;99.90;;;;;;5061782;28;20212;-53
2020/12/02 03:35:01;;;;;;;25.33;13.82;;;3.50;99.90;;;;;;5061313;28;20183;-54
2020/12/02 03:37:27;;;;;;;29.75;14.73;;;3.50;99.90;;;;;;5068893;28;20201;-53
2020/12/02 03:39:53;;;;;;;24.33;13.77;;;3.50;99.90;;;;;;5058280;28;20192;-55
2020/12/02 03:42:19;;;;;;;23.48;13.23;;;3.50;99.90;;;;;;5064241;28;20517;-54
2020/12/02 03:44:45;;;;;;;24.70;13.18;;;3.50;99.90;;;;;;5070884;28;20166;-54
2020/12/02 03:47:12;;;;;;;28.05;14.85;;;3.50;99.90;;;;;;5062222;28;20178;-51
2020/12/02 03:49:38;;;;;;;26.92;13.32;;;3.50;99.90;;;;;;5064951;28;20174;-52
2020/12/02 03:52:04;;;;;;;25.50;13.48;;;3.40;99.90;;;;;;5062159;28;20218;-54
2020/12/02 03:54:30;;;;;;;26.30;13.88;;;3.40;99.90;;;;;;5061801;28;20189;-52
2020/12/02 03:56:56;;;;;;;26.83;14.00;;;3.40;99.90;;;;;;5066010;28;20654;-53
2020/12/02 03:59:22;;;;;;;24.73;13.82;;;3.40;99.90;;;;;;5064776;28;20526;-54
2020/12/02 04:01:48;;;;;;;24.48;13.68;;;3.40;99.90;;;;;;5066801;28;20182;-55
2020/12/02 04:04:15;;;;;;;25.17;14.00;;;3.40;99.90;;;;;;5063862;28;20178;-52
2020/12/02 04:06:41;;;;;;;26.25;13.93;;;3.40;99.90;;;;;;5060961;28;20196;-53
2020/12/02 04:09:07;;;;;;;22.83;12.77;;;3.40;99.90;;;;;;5064891;28;20548;-54
2020/12/02 04:11:33;;;;;;;23.13;13.23;;;3.40;99.90;;;;;;5062035;28;20217;-55
2020/12/02 04:13:59;;;;;;;27.35;13.80;;;3.40;99.90;;;;;;5064597;28;20564;-53
2020/12/02 04:16:25;;;;;;;26.27;14.10;;;3.40;99.90;;;;;;5063227;28;20521;-52
2020/12/02 04:18:51;;;;;;;26.00;14.00;;;3.40;99.90;;;;;;5062145;28;20505;-54
2020/12/02 04:21:24;;;;;;;22.98;12.75;;;3.40;99.90;;;;;;5061978;28;20878;-53
2020/12/02 04:23:52;;;;;;;25.27;13.82;;;3.40;99.90;;;;;;5060973;28;20205;-52
2020/12/02 04:26:18;;;;;;;26.92;13.10;;;3.40;99.90;;;;;;5066920;28;20185;-52
2020/12/02 04:28:44;;;;;;;24.25;12.95;;;3.40;99.90;;;;;;5059729;28;20624;-53
2020/12/02 04:31:10;;;;;;;24.88;13.35;;;3.40;99.90;;;;;;5065987;28;20673;-54
2020/12/02 04:33:36;;;;;;;23.88;13.88;;;3.30;99.90;;;;;;5063249;28;20650;-53
2020/12/02 04:36:03;;;;;;;23.02;13.30;;;3.30;99.90;;;;;;5069712;28;20192;-53
2020/12/02 04:38:29;;;;;;;25.67;14.15;;;3.40;99.90;;;;;;5070144;28;20662;-52
2020/12/02 04:40:55;;;;;;;26.08;14.07;;;3.40;99.90;;;;;;5053096;28;20190;-54
2020/12/02 04:43:27;;;;;;;26.52;14.15;;;3.40;99.90;;;;;;5059244;28;20541;-52
2020/12/02 04:45:54;;;;;;;27.98;13.45;;;3.30;99.90;;;;;;5066965;28;20213;-54
2020/12/02 04:48:22;;;;;;;31.83;14.45;;;3.30;99.90;;;;;;5057229;28;20178;-51
2020/12/02 04:50:54;;;;;;;25.70;14.18;;;3.30;99.90;;;;;;5063710;28;20174;-51
2020/12/02 04:53:21;;;;;;;25.20;14.15;;;3.30;99.90;;;;;;5063331;28;20174;-54
2020/12/02 04:55:50;;;;;;;24.80;13.48;;;3.30;99.90;;;;;;5063425;28;20618;-55
2020/12/02 04:58:28;;;;;;;26.23;14.80;;;3.30;99.90;;;;;;5070114;28;20184;-53
2020/12/02 05:00:55;;;;;;;28.42;14.77;;;3.30;99.90;;;;;;5066398;28;20185;-54
2020/12/02 05:03:25;;;;;;;22.85;13.15;;;3.30;99.90;;;;;;5062103;28;20179;-54
2020/12/02 05:06:00;;;;;;;26.20;14.13;;;3.30;99.90;;;;;;5066113;28;20181;-53
2020/12/02 05:08:28;;;;;;;26.50;14.25;;;3.30;99.90;;;;;;5068589;28;20228;-55
2020/12/02 05:10:55;;;;;;;25.02;13.68;;;3.30;99.90;;;;;;5089910;28;20190;-53
2020/12/02 05:13:22;;;;;;;26.08;13.75;;;3.30;99.90;;;;;;5069643;28;20273;-54
2020/12/02 05:15:48;;;;;;;26.27;13.77;;;3.30;99.90;;;;;;5064726;28;20550;-53
2020/12/02 05:18:14;;;;;;;24.98;14.30;;;3.30;99.90;;;;;;5064252;28;20182;-54
2020/12/02 05:20:43;;;;;;;25.77;13.80;;;3.30;99.90;;;;;;5056230;28;20170;-51
2020/12/02 05:23:16;;;;;;;27.02;14.07;;;3.30;99.90;;;;;;5062692;28;20207;-52
2020/12/02 05:25:42;;;;;;;27.27;14.05;;;3.30;99.90;;;;;;5065390;28;20159;-55
2020/12/02 05:28:31;;;;;;;27.48;14.40;;;3.30;99.90;;;;;;5062375;28;20177;-54
2020/12/02 05:31:19;;;;;;;25.33;13.23;;;3.30;99.90;;;;;;5059462;28;20619;-52
2020/12/02 05:33:46;;;;;;;25.00;13.40;;;3.30;99.90;;;;;;5071346;28;20170;-52
2020/12/02 05:36:18;;;;;;;24.90;14.13;;;3.30;99.90;;;;;;5073026;28;20183;-52
2020/12/02 05:39:17;;;;;;;23.90;13.27;;;3.20;99.90;;;;;;5068738;28;20189;-53
2020/12/02 05:41:45;;;;;;;25.02;13.45;;;3.30;99.90;;;;;;5072404;28;20165;-52
2020/12/02 05:44:42;;;;;;;24.00;13.68;;;3.20;99.90;;;;;;5071735;28;20173;-51
2020/12/02 05:47:17;;;;;;;25.42;13.05;;;3.20;99.90;;;;;;5056453;28;20170;-52
2020/12/02 05:49:43;;;;;;;25.48;9.07;;;3.20;99.90;;;;;;5066727;28;20173;-55
2020/12/02 05:52:25;;;;;;;25.48;8.90;;;3.20;99.90;;;;;;5054430;28;20195;-53
2020/12/02 05:54:58;;;;;;;23.83;9.80;;;3.20;99.90;;;;;;5064502;28;20185;-54
2020/12/02 05:57:24;;;;;;;23.55;9.05;;;3.20;99.90;;;;;;5057277;28;20174;-52
2020/12/02 05:59:55;;;;;;;25.30;12.98;;;3.20;99.90;;;;;;5064548;28;20174;-55
2020/12/02 06:02:22;;;;;;;19.83;9.27;;;3.20;99.90;;;;;;5056417;28;20175;-54
2020/12/02 06:04:53;;;;;;;24.10;12.25;;;3.20;99.90;;;;;;5072590;28;20174;-52
2020/12/02 06:07:19;;;;;;;19.70;8.95;;;3.20;99.90;;;;;;5068646;28;20210;-55
2020/12/02 06:09:47;;;;;;;20.23;9.00;;;3.20;99.90;;;;;;5054494;28;20622;-53
2020/12/02 06:12:20;;;;;;;22.73;9.13;;;3.10;99.90;;;;;;5072591;28;20222;-56
2020/12/02 06:14:46;;;;;;;22.30;8.77;;;3.20;99.90;;;;;;5073639;28;20709;-54
2020/12/02 06:17:29;;;;;;;22.55;8.55;;;3.20;99.90;;;;;;5059518;28;20179;-53
2020/12/02 06:19:55;;;;;;;18.50;8.95;;;3.20;99.90;;;;;;5053653;28;20186;-55
2020/12/02 06:22:45;;;;;;;23.75;12.32;;;3.10;99.90;;;;;;5067243;28;20206;-54
2020/12/02 06:25:47;;;;;;;27.52;12.65;;;3.20;99.90;;;;;;5064447;28;20177;-54
2020/12/02 06:28:34;;;;;;;23.70;11.73;;;3.20;99.90;;;;;;5072575;28;20177;-52
2020/12/02 06:31:14;;;;;;;20.70;11.63;;;3.20;99.90;;;;;;5065174;28;20193;-54
2020/12/02 06:33:41;;;;;;;23.13;12.45;;;3.20;99.90;;;;;;5066736;28;20197;-52
2020/12/02 06:36:21;;;;;;;24.27;11.95;;;3.20;99.90;;;;;;5068094;28;20182;-55
2020/12/02 06:38:50;;;;;;;23.67;12.05;;;3.20;99.90;;;;;;5067590;28;20657;-52
2020/12/02 06:41:26;;;;;;;19.85;11.20;;;3.20;99.90;;;;;;5066747;28;20207;-52
2020/12/02 06:43:57;;;;;;;24.02;11.88;;;3.30;99.90;;;;;;5063253;28;20641;-52
2020/12/02 06:46:54;;;;;;;22.40;12.77;;;3.30;99.90;;;;;;5059400;28;20177;-55
2020/12/02 06:49:21;;;;;;;22.92;12.77;;;3.30;99.90;;;;;;5062703;28;20162;-53
2020/12/02 06:52:12;;;;;;;22.25;12.27;;;3.30;99.90;;;;;;5061539;28;20202;-55
2020/12/02 06:54:39;;;;;;;24.33;12.15;;;3.30;99.90;;;;;;5058518;28;20190;-54
2020/12/02 06:57:19;;;;;;;22.40;12.27;;;3.30;99.90;;;;;;5049189;28;20193;-55
2020/12/02 06:59:57;;;;;;;25.95;13.73;;;3.30;99.90;;;;;;5069489;28;20534;-54
2020/12/02 07:02:43;;;;;;;25.15;13.55;;;3.30;99.90;;;;;;5063572;28;20182;-53
2020/12/02 07:05:23;;;;;;;22.70;12.55;;;3.30;99.90;;;;;;5062316;28;20638;-54
2020/12/02 07:07:50;;;;;;;22.88;12.95;;;3.40;99.90;;;;;;5062641;28;20221;-52
2020/12/02 07:10:18;;;;;;;24.83;11.90;;;3.40;99.90;;;;;;5062133;28;20183;-54
2020/12/02 07:12:45;;;;;;;22.33;12.85;;;3.40;99.90;;;;;;5071224;28;20201;-54
2020/12/02 07:15:12;;;;;;;24.50;12.73;;;3.40;99.90;;;;;;5051477;28;20185;-53
2020/12/02 07:17:39;;;;;;;23.65;12.30;;;3.40;99.90;;;;;;5069638;28;20178;-53
2020/12/02 07:20:13;;;;;;;25.17;12.73;;;3.40;99.90;;;;;;5067005;28;20182;-55
2020/12/02 07:22:52;;;;;;;25.10;12.70;;;3.40;99.90;;;;;;5063110;28;20181;-54
2020/12/02 07:25:18;;;;;;;22.52;12.27;;;3.40;99.90;;;;;;5063261;28;20182;-54
2020/12/02 07:27:45;;;;;;;23.55;11.35;;;3.40;99.90;;;;;;5066842;28;20174;-54
2020/12/02 07:30:35;;;;;;;21.63;12.85;;;3.40;99.90;;;;;;5068522;28;20685;-54
2020/12/02 07:33:15;;;;;;;24.48;12.82;;;3.40;99.90;;;;;;5065643;28;20561;-55
2020/12/02 07:45:49;;;;;;;23.33;11.02;;;3.40;99.90;;;;;;5063748;28;20205;-55
2020/12/02 07:48:25;;;;;;;17.35;7.97;;;3.50;99.90;;;;;;5066750;28;20193;-55
2020/12/02 07:51:04;;;;;;;18.20;8.07;;;3.50;99.90;;;;;;5058616;28;20170;-52
2020/12/02 07:53:50;;;;;;;21.80;10.30;;;3.40;99.90;;;;;;5060520;28;20201;-55
2020/12/02 07:56:31;;;;;;;24.70;11.32;;;3.50;99.90;;;;;;5063179;28;20187;-52
2020/12/02 07:59:05;;;;;;;20.63;11.57;;;3.50;99.90;;;;;;5061806;28;20174;-52
2020/12/02 08:01:34;;;;;;;19.60;11.10;;;3.50;99.90;;;;;;5057533;28;20158;-56
2020/12/02 08:04:14;;;;;;;22.40;11.45;;;3.50;99.90;;;;;;5068690;28;20197;-54
2020/12/02 08:06:44;;;;;;;22.15;11.95;;;3.50;99.90;;;;;;5060668;28;20185;-51
2020/12/02 08:09:10;;;;;;;19.15;10.38;;;3.50;99.90;;;;;;5058429;28;20228;-55
2020/12/02 08:11:47;;;;;;;20.80;11.77;;;3.50;99.90;;;;;;5057432;28;20183;-53
2020/12/02 08:14:19;;;;;;;23.92;11.55;;;3.50;99.90;;;;;;5052886;28;20185;-53
2020/12/02 08:16:45;;;;;;;23.50;11.93;;;3.50;99.90;;;;;;5065202;28;20375;-54
2020/12/02 08:19:12;;;;;;;19.15;11.05;;;3.50;99.90;;;;;;5052331;28;20174;-55
2020/12/02 08:21:39;;;;;;;20.92;10.80;;;3.60;99.90;;;;;;5058351;28;20359;-53
2020/12/02 08:24:33;;;;;;;22.95;11.68;;;3.60;99.90;;;;;;5058051;28;20194;-53
2020/12/02 08:26:59;;;;;;;18.38;11.32;;;3.60;99.90;;;;;;5062500;28;20484;-54
2020/12/02 08:29:25;;;;;;;21.98;11.70;;;3.60;99.90;;;;;;5055071;28;20174;-55
2020/12/02 08:32:19;;;;;;;21.27;11.65;;;3.60;99.90;;;;;;5056146;28;20594;-54
2020/12/02 08:34:45;;;;;;;22.48;11.95;;;3.60;99.90;;;;;;5062400;28;20201;-55
2020/12/02 08:37:11;;;;;;;18.75;10.93;;;3.60;99.90;;;;;;5065932;28;20181;-56
2020/12/02 08:39:42;;;;;;;20.55;12.27;;;3.60;99.90;;;;;;5066316;28;20543;-52
2020/12/02 08:42:12;;;;;;;24.08;11.82;;;3.60;99.90;;;;;;5064601;28;20185;-56
2020/12/02 08:44:38;;;;;;;21.27;11.25;;;3.60;99.90;;;;;;5058626;28;20186;-54
2020/12/02 08:47:15;;;;;;;20.92;11.90;;;3.60;99.90;;;;;;5065109;28;20186;-56
2020/12/02 08:49:41;;;;;;;21.77;11.65;;;3.60;99.90;;;;;;5061017;28;20154;-56
2020/12/02 08:52:08;;;;;;;21.30;11.13;;;3.60;99.90;;;;;;5055696;28;20206;-55
2020/12/02 08:54:34;;;;;;;24.45;12.13;;;3.70;99.90;;;;;;5060890;28;20193;-55
2020/12/02 08:57:11;;;;;;;26.13;12.18;;;3.70;99.90;;;;;;5066746;28;20178;-56
2020/12/02 08:59:37;;;;;;;24.45;11.70;;;3.70;99.90;;;;;;5058196;28;20869;-53
2020/12/02 09:02:13;;;;;;;25.40;12.05;;;3.70;99.90;;;;;;5058773;28;20523;-56
2020/12/02 09:04:40;;;;;;;21.13;11.27;;;3.70;99.90;;;;;;5064566;28;20181;-54
2020/12/02 09:07:06;;;;;;;23.45;11.95;;;3.70;99.90;;;;;;5062462;28;20178;-53
2020/12/02 09:09:32;;;;;;;23.65;12.30;;;3.70;99.90;;;;;;5063387;28;20166;-55
2020/12/02 09:11:58;;;;;;;22.88;11.70;;;3.70;99.90;;;;;;5062489;28;20183;-52
2020/12/02 09:14:24;;;;;;;26.00;12.05;;;3.70;99.90;;;;;;5060701;28;20635;-53
2020/12/02 09:16:51;;;;;;;22.77;13.00;;;3.70;99.90;;;;;;5067474;28;20182;-56
2020/12/02 09:19:17;;;;;;;25.40;12.52;;;3.70;99.90;;;;;;5064039;28;20189;-55
2020/12/02 09:21:44;;;;;;;19.63;11.75;;;3.70;99.90;;;;;;5055193;28;20207;-54
2020/12/02 09:24:11;;;;;;;21.35;12.32;;;3.70;99.90;;;;;;5063213;28;20186;-55
2020/12/02 09:26:38;;;;;;;23.63;12.02;;;3.80;99.90;;;;;;5060088;28;20175;-54
2020/12/02 09:29:05;;;;;;;18.95;10.45;;;3.70;99.90;;;;;;5056248;28;20181;-56
2020/12/02 09:31:32;;;;;;;19.88;11.23;;;3.70;99.90;;;;;;5061536;28;20512;-55
2020/12/02 09:33:58;;;;;;;23.20;12.27;;;3.80;99.90;;;;;;5068455;28;20311;-56
2020/12/02 09:36:26;;;;;;;20.83;12.32;;;3.80;99.90;;;;;;5060901;28;20249;-55
2020/12/02 09:38:54;;;;;;;22.42;11.60;;;3.80;99.90;;;;;;5065046;28;20186;-55
2020/12/02 09:41:34;;;;;;;21.48;12.05;;;3.80;99.90;;;;;;5069511;28;20182;-54
2020/12/02 09:44:25;;;;;;;24.23;11.65;;;3.80;99.90;;;;;;5056398;28;20174;-56
2020/12/02 09:47:09;;;;;;;22.08;11.93;;;3.80;99.90;;;;;;5064206;28;20162;-53
2020/12/02 09:49:36;;;;;;;19.27;11.32;;;3.80;99.90;;;;;;5062518;28;20586;-54
2020/12/02 09:52:08;;;;;;;23.08;12.00;;;3.80;99.90;;;;;;5071513;28;20177;-54
2020/12/02 09:54:41;;;;;;;22.88;11.38;;;3.80;99.90;;;;;;5073347;28;20204;-55
2020/12/02 09:57:18;;;;;;;23.73;12.35;;;3.80;99.90;;;;;;5066852;28;20202;-53
2020/12/02 09:59:44;;;;;;;22.30;12.13;;;3.80;99.90;;;;;;5068358;28;20646;-53
2020/12/02 10:02:36;;;;;;;20.45;11.85;;;3.80;99.90;;;;;;5068342;28;20182;-54
2020/12/02 10:05:27;;;;;;;21.48;11.57;;;3.90;99.90;;;;;;5070073;28;20194;-52
2020/12/02 10:08:02;;;;;;;23.55;12.60;;;3.80;99.90;;;;;;5068032;28;20225;-52
2020/12/02 10:10:38;;;;;;;18.55;11.05;;;3.80;99.90;;;;;;5067957;28;20173;-53
2020/12/02 10:13:26;;;;;;;25.45;11.90;;;3.80;99.90;;;;;;5067944;28;20205;-54
2020/12/02 10:16:32;;;;;;;22.00;12.23;;;3.80;99.90;;;;;;5069358;28;20205;-54
2020/12/02 10:19:19;;;;;;;21.45;11.38;;;3.80;99.90;;;;;;5052206;28;20173;-53
2020/12/02 10:21:58;;;;;;;25.23;11.80;;;3.80;99.90;;;;;;5069483;28;20205;-54
2020/12/02 10:24:30;;;;;;;22.55;11.93;;;3.80;99.90;;;;;;5065124;28;20538;-53
2020/12/02 10:27:33;;;;;;;27.27;13.23;;;3.80;99.90;;;;;;5063670;28;20158;-53
2020/12/02 10:30:12;;;;;;;22.98;13.48;;;3.80;99.90;;;;;;5057418;28;20186;-53
2020/12/02 10:33:08;;;;;;;21.23;11.40;;;3.80;99.90;;;;;;5065126;28;20736;-56
2020/12/02 10:35:36;;;;;;;26.77;13.20;;;3.80;99.90;;;;;;5049958;28;20171;-52
2020/12/02 10:38:06;;;;;;;24.08;13.07;;;3.80;99.90;;;;;;5065139;28;20662;-53
2020/12/02 10:40:40;;;;;;;21.38;12.10;;;3.90;99.90;;;;;;5071058;28;20166;-53
2020/12/02 10:43:23;;;;;;;23.50;12.80;;;3.80;99.90;;;;;;5053636;28;20513;-55
2020/12/02 10:45:50;;;;;;;23.15;12.82;;;3.90;99.90;;;;;;5055677;28;20549;-55
2020/12/02 10:48:49;;;;;;;24.48;13.23;;;3.80;99.90;;;;;;5061433;28;20183;-52
2020/12/02 10:51:15;;;;;;;24.02;12.85;;;3.80;99.90;;;;;;5060184;28;20175;-53
2020/12/02 10:53:43;;;;;;;28.20;13.00;;;3.90;99.90;;;;;;5062162;28;20663;-53
2020/12/02 10:56:09;;;;;;;26.55;12.88;;;3.90;99.90;;;;;;5059154;28;20159;-52
2020/12/02 10:58:35;;;;;;;25.42;12.80;;;3.90;99.90;;;;;;5056827;28;20185;-52
2020/12/02 11:01:03;;;;;;;25.08;12.88;;;3.90;99.90;;;;;;5062581;28;20183;-52
2020/12/02 11:03:37;;;;;;;25.42;12.93;;;3.90;99.90;;;;;;5066090;28;20180;-55
2020/12/02 11:06:32;;;;;;;26.63;13.27;;;3.90;99.90;;;;;;5070729;28;20170;-54
2020/12/02 11:09:14;;;;;;;29.38;13.48;;;3.90;99.90;;;;;;5057875;28;20226;-56
2020/12/02 11:11:49;;;;;;;23.88;13.02;;;3.90;99.90;;;;;;5067629;28;20166;-52
2020/12/02 11:14:48;;;;;;;22.67;12.93;;;3.90;99.90;;;;;;5057906;28;20205;-53
2020/12/02 11:17:19;;;;;;;25.15;12.95;;;3.90;99.90;;;;;;5058187;28;20557;-54
2020/12/02 11:19:53;;;;;;;24.33;13.02;;;4.00;99.90;;;;;;5055184;28;20187;-54
2020/12/02 11:22:38;;;;;;;25.65;13.35;;;3.90;99.90;;;;;;5066084;28;20185;-54
2020/12/02 11:25:26;;;;;;;23.30;13.07;;;4.00;99.90;;;;;;5059665;28;20190;-54
2020/12/02 11:27:53;;;;;;;24.73;13.50;;;3.90;99.90;;;;;;5061543;28;20518;-55
2020/12/02 11:30:28;;;;;;;29.40;13.40;;;3.90;99.90;;;;;;5052424;28;20619;-52
2020/12/02 11:33:19;;;;;;;30.95;14.15;;;4.00;99.90;;;;;;5064175;28;20696;-53
2020/12/02 11:36:06;;;;;;;26.15;13.20;;;4.00;99.90;;;;;;5072070;28;20185;-52
2020/12/02 11:38:43;;;;;;;27.50;13.70;;;3.90;99.90;;;;;;5069181;28;20177;-54
2020/12/02 11:41:23;;;;;;;25.85;13.63;;;3.90;99.90;;;;;;5065533;28;20170;-53
2020/12/02 11:43:53;;;;;;;28.88;13.90;;;3.90;99.90;;;;;;5061509;28;20166;-53
2020/12/02 11:46:20;;;;;;;27.77;13.45;;;4.00;99.90;;;;;;5049271;28;20507;-53
2020/12/02 11:49:16;;;;;;;25.35;13.52;;;4.00;99.90;;;;;;5065473;28;20186;-52
2020/12/02 11:52:20;;;;;;;26.88;14.13;;;4.00;99.90;;;;;;5066850;28;20189;-53
2020/12/02 11:54:46;;;;;;;32.85;16.42;;;4.00;99.90;;;;;;5050277;28;20186;-52
2020/12/02 11:57:14;;;;;;;28.02;14.20;;;4.00;99.90;;;;;;5063863;28;20193;-52
2020/12/02 11:59:40;;;;;;;26.45;13.90;;;4.00;99.90;;;;;;5056786;28;20163;-52
2020/12/02 12:02:33;;;;;;;29.00;14.55;;;4.00;99.90;;;;;;5056446;28;20193;-55
2020/12/02 12:05:27;;;;;;;26.50;13.98;;;4.00;99.90;;;;;;5062633;28;20186;-53
2020/12/02 12:08:12;;;;;;;24.73;13.93;;;4.00;99.90;;;;;;5063545;28;20228;-55
2020/12/02 12:10:52;;;;;;;26.75;14.10;;;4.00;99.90;;;;;;5060319;28;20174;-55
2020/12/02 12:13:30;;;;;;;27.50;14.35;;;4.00;99.90;;;;;;5053550;28;20600;-55
2020/12/02 12:16:08;;;;;;;27.55;13.88;;;4.00;99.90;;;;;;5065672;28;20161;-52
2020/12/02 12:18:47;;;;;;;28.15;14.52;;;3.90;99.90;;;;;;5065192;28;20174;-54
2020/12/02 12:21:41;;;;;;;29.83;14.25;;;4.00;99.90;;;;;;5063248;28;20525;-54
2020/12/02 12:24:09;;;;;;;25.25;14.20;;;3.90;99.90;;;;;;5058791;28;20191;-53
2020/12/02 12:26:46;;;;;;;26.92;14.43;;;3.90;99.90;;;;;;5056452;28;20212;-54
2020/12/02 12:29:12;;;;;;;26.90;14.30;;;4.00;99.90;;;;;;5062093;28;20154;-55
2020/12/02 12:32:01;;;;;;;28.42;14.88;;;4.00;99.90;;;;;;5062621;28;20200;-52
2020/12/02 12:34:56;;;;;;;34.60;15.93;;;4.00;99.90;;;;;;5067200;28;20658;-52
2020/12/02 12:37:37;;;;;;;30.95;14.90;;;4.00;99.90;;;;;;5069769;28;20189;-52
2020/12/02 12:40:19;;;;;;;33.67;15.70;;;4.10;99.90;;;;;;5060825;28;20186;-56
2020/12/02 12:42:46;;;;;;;31.80;14.80;;;4.00;99.90;;;;;;5061637;28;20189;-56
2020/12/02 12:45:27;;;;;;;28.50;15.27;;;4.00;99.90;;;;;;5066486;28;20178;-55
2020/12/02 12:47:54;;;;;;;32.78;14.07;;;4.00;99.90;;;;;;5067921;28;20540;-55
2020/12/02 12:50:20;;;;;;;28.73;14.68;;;4.10;99.90;;;;;;5062724;28;20170;-54
2020/12/02 12:52:46;;;;;;;27.15;14.35;;;4.10;99.90;;;;;;5060954;28;20665;-54
2020/12/02 12:55:14;;;;;;;27.15;14.02;;;4.10;99.90;;;;;;5063069;28;20643;-53
2020/12/02 12:57:48;;;;;;;34.83;14.80;;;4.10;99.90;;;;;;5058731;28;20555;-52
2020/12/02 13:00:14;;;;;;;27.75;13.25;;;4.10;99.90;;;;;;5066502;28;20162;-52
2020/12/02 13:02:40;;;;;;;29.55;14.32;;;4.10;99.90;;;;;;5059962;28;20183;-54
2020/12/02 13:05:10;;;;;;;33.80;14.90;;;4.10;99.90;;;;;;5050606;28;20530;-53
2020/12/02 13:07:40;;;;;;;32.33;15.45;;;4.10;99.90;;;;;;5060981;28;20202;-53
2020/12/02 13:10:25;;;;;;;33.90;15.73;;;4.10;99.90;;;;;;5050465;28;20162;-52
2020/12/02 13:13:18;;;;;;;30.38;14.85;;;4.10;99.90;;;;;;5065404;28;20532;-54
2020/12/02 13:16:21;;;;;;;31.42;14.38;;;4.10;99.90;;;;;;5062948;28;20530;-53
2020/12/02 13:19:13;;;;;;;34.20;15.23;;;4.10;99.90;;;;;;5059792;28;20181;-52
2020/12/02 13:21:48;;;;;;;32.00;15.20;;;4.10;99.90;;;;;;5066613;28;20190;-52
2020/12/02 13:24:32;;;;;;;30.63;14.45;;;4.10;99.90;;;;;;5064235;28;20661;-52
2020/12/02 13:27:02;;;;;;;31.63;14.93;;;4.10;99.90;;;;;;5064877;28;20170;-53
2020/12/02 13:29:33;;;;;;;28.75;14.65;;;4.10;99.90;;;;;;5067205;28;20158;-54
2020/12/02 13:32:01;;;;;;;27.80;14.05;;;4.10;99.90;;;;;;5066004;28;20183;-53
2020/12/02 13:34:27;;;;;;;28.50;14.63;;;4.10;99.90;;;;;;5067026;28;20202;-52
2020/12/02 13:36:54;;;;;;;29.23;15.18;;;4.10;99.90;;;;;;5070870;28;20178;-52
2020/12/02 13:39:20;;;;;;;26.52;14.48;;;4.00;99.90;;;;;;5064123;28;20240;-52
2020/12/02 13:41:54;;;;;;;30.75;14.30;;;4.00;99.90;;;;;;5069168;28;20635;-55
2020/12/02 13:44:23;;;;;;;28.13;13.65;;;4.00;99.90;;;;;;5062250;28;20166;-52
2020/12/02 13:46:51;;;;;;;27.38;14.35;;;4.00;99.90;;;;;;5067403;28;20529;-52
2020/12/02 13:49:17;;;;;;;30.50;14.13;;;4.00;99.90;;;;;;5064704;28;20162;-52
2020/12/02 13:52:03;;;;;;;28.27;13.38;;;3.90;99.90;;;;;;5069948;28;20178;-53
2020/12/02 13:54:55;;;;;;;29.13;14.25;;;3.90;99.90;;;;;;5070019;28;20197;-53
2020/12/02 13:57:39;;;;;;;30.52;14.93;;;3.90;99.90;;;;;;5070153;28;20181;-52
2020/12/02 14:00:23;;;;;;;32.00;15.38;;;3.90;99.90;;;;;;5065096;28;20189;-53
2020/12/02 14:03:20;;;;;;;30.30;14.65;;;3.90;99.90;;;;;;5063547;28;20665;-52
2020/12/02 14:06:08;;;;;;;30.95;14.95;;;3.90;99.90;;;;;;5065920;28;20190;-53
2020/12/02 14:08:37;;;;;;;30.10;14.20;;;3.90;99.90;;;;;;5070458;28;20205;-52
2020/12/02 14:11:04;;;;;;;32.55;14.77;;;3.90;99.90;;;;;;5067777;28;20178;-52
2020/12/02 14:13:31;;;;;;;29.60;14.60;;;3.90;99.90;;;;;;5066603;28;20631;-54
2020/12/02 14:15:57;;;;;;;29.33;15.20;;;3.90;99.90;;;;;;5070291;28;20185;-53
2020/12/02 14:18:23;;;;;;;35.08;14.70;;;3.90;99.90;;;;;;5068537;28;20198;-52
2020/12/02 14:20:49;;;;;;;29.55;14.40;;;3.80;99.90;;;;;;5060052;28;20643;-52
2020/12/02 14:23:16;;;;;;;30.85;15.48;;;3.80;99.90;;;;;;5073191;28;20177;-53
2020/12/02 14:25:42;;;;;;;30.05;14.80;;;3.80;99.90;;;;;;5067498;28;20193;-52
2020/12/02 14:28:13;;;;;;;31.25;15.45;;;3.80;99.90;;;;;;5066838;28;20174;-52
2020/12/02 14:30:40;;;;;;;30.80;13.70;;;3.80;99.90;;;;;;5070201;28;20570;-52
2020/12/02 14:33:09;;;;;;;27.90;13.80;;;3.80;99.90;;;;;;5069527;28;20181;-52
2020/12/02 14:35:36;;;;;;;33.13;15.50;;;3.80;99.90;;;;;;5064803;28;20182;-55
2020/12/02 14:38:08;;;;;;;28.42;14.00;;;3.80;99.90;;;;;;5061488;28;20186;-55
2020/12/02 14:40:37;;;;;;;30.40;14.90;;;3.70;99.90;;;;;;5066301;28;20543;-53
2020/12/02 14:43:15;;;;;;;30.02;15.07;;;3.80;99.90;;;;;;5072506;28;20213;-56
2020/12/02 14:45:44;;;;;;;29.90;13.82;;;3.70;99.90;;;;;;5065206;28;20186;-53
2020/12/02 14:48:14;;;;;;;34.85;15.77;;;3.70;99.90;;;;;;5069998;28;20622;-55
2020/12/02 14:50:40;;;;;;;31.80;15.35;;;3.70;99.90;;;;;;5066499;28;20193;-52
2020/12/02 14:53:06;;;;;;;27.85;14.27;;;3.70;99.90;;;;;;5061964;28;20202;-53
2020/12/02 14:55:33;;;;;;;32.03;14.85;;;3.70;99.90;;;;;;5062197;28;20186;-55
2020/12/02 14:58:05;;;;;;;30.83;15.13;;;3.70;99.90;;;;;;5067924;28;20190;-52
2020/12/02 15:00:33;;;;;;;31.33;15.13;;;3.70;99.90;;;;;;5071201;28;20185;-52
2020/12/02 15:03:00;;;;;;;32.00;15.55;;;3.70;99.90;;;;;;5070135;28;20174;-52
2020/12/02 15:05:30;;;;;;;30.38;15.13;;;3.60;99.90;;;;;;5068322;28;20178;-55
2020/12/02 15:08:08;;;;;;;34.47;15.48;;;3.50;99.90;;;;;;5071029;28;20220;-53
2020/12/02 15:10:38;;;;;;;35.55;15.13;;;3.40;99.90;;;;;;5070791;28;20530;-53
2020/12/02 15:13:23;;;;;;;33.30;15.25;;;3.20;99.90;;;;;;5063932;28;20159;-54
2020/12/02 15:15:51;;;;;;;33.65;15.85;;;3.20;99.90;;;;;;5068055;28;20200;-52
2020/12/02 15:18:18;;;;;;;34.38;16.00;;;3.10;99.90;;;;;;5069814;28;20166;-52
2020/12/02 15:20:47;;;;;;;34.95;16.13;;;3.00;99.90;;;;;;5065549;28;20178;-54
2020/12/02 15:23:19;;;;;;;36.30;16.70;;;3.00;99.90;;;;;;5061244;28;20181;-56
2020/12/02 15:25:45;;;;;;;35.65;16.08;;;2.90;99.90;;;;;;5070591;28;20602;-53
2020/12/02 15:28:14;;;;;;;42.22;17.52;;;2.80;99.90;;;;;;5062753;28;20288;-52
2020/12/02 15:30:45;;;;;;;39.45;17.70;;;2.80;99.90;;;;;;5065420;28;20174;-52
2020/12/02 15:33:29;;;;;;;34.90;16.13;;;2.80;99.90;;;;;;5069588;28;20181;-54
2020/12/02 15:36:11;;;;;;;36.95;17.17;;;2.70;99.90;;;;;;5061902;28;20178;-53
2020/12/02 15:38:46;;;;;;;36.13;17.45;;;2.60;99.90;;;;;;5056112;28;20170;-52
2020/12/02 15:41:13;;;;;;;36.83;18.13;;;2.60;99.90;;;;;;5067964;28;20527;-52
2020/12/02 15:43:41;;;;;;;45.33;18.58;;;2.60;99.90;;;;;;5062192;28;20173;-52
2020/12/02 15:46:29;;;;;;;51.58;19.08;;;2.60;99.90;;;;;;5063217;28;20171;-52
2020/12/02 15:49:03;;;;;;;46.53;18.45;;;2.50;99.90;;;;;;5069557;28;20174;-52